Time;durP1;ratioP1;P1;durP2;ratioP2;P2;SDS_P1;SDS_P2;PMS_P1;PMS_P2;Temp;Humidity;BMP_temperature;BMP_pressure;BME280_temperature;BME280_humidity;BME280_pressure;Samples;Min_cycle;Max_cycle;Signal;HPM_P1;HPM_P2
2023/01/30 00:01:15;;;;;;;27.07;13.20;;;;;;;-0.41;100.00;94866.53;5075742;28;20622;-79
2023/01/30 00:03:42;;;;;;;27.37;13.73;;;;;;;-0.26;100.00;94886.28;5070788;28;20198;-81
2023/01/30 00:06:10;;;;;;;27.83;13.87;;;;;;;-0.28;100.00;94875.44;5074780;28;20193;-83
2023/01/30 00:08:38;;;;;;;29.47;14.63;;;;;;;-0.43;100.00;94860.78;5059743;28;20217;-80
2023/01/30 00:11:07;;;;;;;27.23;14.20;;;;;;;-0.33;100.00;94872.50;5070135;28;20193;-79
2023/01/30 00:13:34;;;;;;;27.73;13.57;;;;;;;-0.40;100.00;94878.34;5086532;28;20201;-80
2023/01/30 00:16:01;;;;;;;26.90;14.87;;;;;;;-0.62;100.00;94862.53;5084934;28;20200;-79
2023/01/30 00:18:28;;;;;;;29.47;14.10;;;;;;;-0.48;100.00;94883.38;5064636;28;20189;-79
2023/01/30 00:20:59;;;;;;;25.93;13.43;;;;;;;-0.66;100.00;94873.16;5076785;28;20203;-80
2023/01/30 00:23:26;;;;;;;32.97;15.20;;;;;;;-0.58;100.00;94883.44;5068288;28;20722;-80
2023/01/30 00:25:58;;;;;;;30.70;15.17;;;;;;;-0.59;100.00;94869.88;5071397;28;20201;-80
2023/01/30 00:28:25;;;;;;;29.03;14.53;;;;;;;-0.43;100.00;94876.88;5079904;28;20265;-82
2023/01/30 00:30:53;;;;;;;28.80;14.20;;;;;;;-0.42;100.00;94877.69;5074492;28;20221;-81
2023/01/30 00:33:21;;;;;;;29.53;14.73;;;;;;;-0.53;100.00;94873.59;5076600;28;20197;-81
2023/01/30 00:35:50;;;;;;;28.07;13.53;;;;;;;-0.53;100.00;94876.16;5076630;28;20201;-82
2023/01/30 00:38:17;;;;;;;26.53;13.37;;;;;;;-0.53;100.00;94873.59;5066044;28;20567;-81
2023/01/30 00:40:44;;;;;;;30.90;12.83;;;;;;;-0.61;100.00;94863.31;5076200;28;20202;-80
2023/01/30 00:48:45;;;;;;;28.30;13.47;;;;;;;-0.60;100.00;94857.25;5078864;28;20648;-80
2023/01/30 00:51:12;;;;;;;28.23;13.20;;;;;;;-0.72;100.00;94841.34;5082689;28;20595;-80
2023/01/30 00:53:39;;;;;;;26.87;13.17;;;;;;;-0.69;100.00;94850.47;5076695;28;20204;-81
2023/01/30 00:56:07;;;;;;;29.27;13.53;;;;;;;-0.65;100.00;94854.34;5079062;28;20266;-81
2023/01/30 00:58:35;;;;;;;26.47;13.07;;;;;;;-0.73;100.00;94847.44;5078684;28;20697;-80
2023/01/30 01:01:01;;;;;;;23.37;13.17;;;;;;;-0.67;100.00;94844.31;5082164;28;20194;-80
2023/01/30 01:03:28;;;;;;;30.27;14.47;;;;;;;-0.58;100.00;94857.94;5081889;28;20220;-79
2023/01/30 01:05:55;;;;;;;23.27;11.93;;;;;;;-0.60;100.00;94850.41;5078522;28;20190;-80
2023/01/30 01:08:22;;;;;;;25.10;13.33;;;;;;;-0.74;100.00;94850.91;5071978;28;20646;-80
2023/01/30 01:10:49;;;;;;;29.50;13.67;;;;;;;-0.78;100.00;94836.06;5071007;28;20197;-80
2023/01/30 01:13:16;;;;;;;27.53;13.53;;;;;;;-0.74;100.00;94845.00;5072922;28;20564;-81
2023/01/30 01:15:44;;;;;;;27.33;12.63;;;;;;;-0.77;100.00;94848.66;5072033;28;20755;-81
2023/01/30 01:18:11;;;;;;;25.83;12.80;;;;;;;-0.79;100.00;94837.81;5077633;28;20193;-80
2023/01/30 01:20:38;;;;;;;24.90;12.33;;;;;;;-0.60;100.00;94844.50;5080826;28;20206;-80
2023/01/30 01:23:05;;;;;;;26.63;12.53;;;;;;;-0.59;100.00;94843.56;5077431;28;20193;-80
2023/01/30 01:25:32;;;;;;;28.80;14.07;;;;;;;-0.56;100.00;94825.41;5087309;28;20670;-81
2023/01/30 01:27:59;;;;;;;26.40;12.77;;;;;;;-0.47;100.00;94828.84;5093533;28;20216;-82
2023/01/30 01:30:25;;;;;;;24.77;12.27;;;;;;;-0.44;100.00;94814.03;5071797;28;20233;-81
2023/01/30 01:32:54;;;;;;;27.90;13.40;;;;;;;-0.34;100.00;94835.16;5071437;28;20280;-81
2023/01/30 01:35:20;;;;;;;23.93;12.37;;;;;;;-0.30;100.00;94823.72;5072864;28;20243;-80
2023/01/30 01:37:47;;;;;;;27.23;12.47;;;;;;;-0.39;100.00;94816.94;5071761;28;20251;-81
2023/01/30 01:43:18;;;;;;;24.27;12.30;;;;;;;-0.50;100.00;94822.28;5070756;28;20465;-79
2023/01/30 01:45:47;;;;;;;22.97;11.90;;;;;;;-0.50;100.00;94817.19;5078583;28;20199;-79
2023/01/30 01:48:20;;;;;;;24.17;11.90;;;;;;;-0.62;100.00;94814.03;5074225;28;20776;-79
2023/01/30 01:50:56;;;;;;;22.17;11.80;;;;;;;-0.41;100.00;94830.81;5070404;28;20202;-79
2023/01/30 01:53:33;;;;;;;23.47;11.27;;;;;;;-0.45;100.00;94821.81;5081181;28;20195;-81
2023/01/30 01:56:02;;;;;;;23.57;11.30;;;;;;;-0.36;100.00;94826.06;5071128;28;20208;-80
2023/01/30 01:58:34;;;;;;;21.77;10.60;;;;;;;-0.41;100.00;94821.41;5070876;28;20629;-83
2023/01/30 02:01:01;;;;;;;19.73;10.27;;;;;;;-0.53;100.00;94817.47;5072936;28;20185;-82
2023/01/30 02:03:36;;;;;;;21.57;11.33;;;;;;;-0.49;100.00;94816.22;5084491;28;20196;-82
2023/01/30 02:06:04;;;;;;;23.63;10.93;;;;;;;-0.40;100.00;94825.53;5080298;28;20197;-82
2023/01/30 02:08:35;;;;;;;23.97;10.63;;;;;;;-0.23;100.00;94829.81;5071679;28;20676;-80
2023/01/30 02:11:09;;;;;;;21.97;10.87;;;;;;;-0.26;100.00;94835.22;5081339;28;20663;-80
2023/01/30 02:13:36;;;;;;;18.77;10.33;;;;;;;-0.33;100.00;94831.66;5079884;28;20190;-80
2023/01/30 02:16:05;;;;;;;23.17;10.80;;;;;;;-0.49;100.00;94813.66;5082302;28;20653;-82
2023/01/30 02:18:35;;;;;;;23.47;10.30;;;;;;;-0.29;100.00;94825.31;5079496;28;20223;-82
2023/01/30 02:21:35;;;;;;;20.83;10.30;;;;;;;-0.25;100.00;94823.25;5073910;28;20189;-81
2023/01/30 02:24:26;;;;;;;21.33;10.33;;;;;;;-0.39;100.00;94814.38;5074740;28;20210;-81
2023/01/30 02:27:04;;;;;;;21.00;9.93;;;;;;;-0.35;100.00;94817.47;5053444;28;20178;-81
2023/01/30 02:30:06;;;;;;;21.57;10.77;;;;;;;-0.35;100.00;94828.47;5082362;28;20228;-79
2023/01/30 02:32:41;;;;;;;22.17;10.10;;;;;;;-0.35;100.00;94810.59;5083576;28;20207;-80
2023/01/30 02:35:17;;;;;;;19.53;10.17;;;;;;;-0.23;100.00;94824.72;5076910;28;20827;-80
2023/01/30 02:37:55;;;;;;;21.47;11.50;;;;;;;-0.26;100.00;94822.47;5071711;28;20197;-81
2023/01/30 02:40:36;;;;;;;20.00;10.53;;;;;;;-0.35;100.00;94812.34;5070889;28;20615;-81
2023/01/30 02:43:16;;;;;;;19.40;10.63;;;;;;;-0.37;100.00;94824.44;5079996;28;20205;-81
2023/01/30 02:45:50;;;;;;;18.47;9.47;;;;;;;-0.42;100.00;94824.09;5084392;28;20617;-81
2023/01/30 02:48:23;;;;;;;20.07;10.20;;;;;;;-0.32;100.00;94807.75;5072454;28;20193;-83
2023/01/30 02:50:56;;;;;;;18.93;9.87;;;;;;;-0.42;100.00;94798.56;5071465;28;20198;-82
2023/01/30 02:53:23;;;;;;;16.97;9.23;;;;;;;-0.37;100.00;94807.38;5079513;28;20186;-82
2023/01/30 02:55:50;;;;;;;18.43;9.40;;;;;;;-0.37;100.00;94820.16;5082341;28;20202;-82
2023/01/30 02:58:21;;;;;;;19.43;10.03;;;;;;;-0.42;100.00;94829.19;5070078;28;20202;-82
2023/01/30 03:01:07;;;;;;;17.97;8.70;;;;;;;-0.40;100.00;94822.19;5082123;28;20276;-82
2023/01/30 03:03:46;;;;;;;18.03;9.47;;;;;;;-0.56;100.00;94822.84;5085394;28;20185;-82
2023/01/30 03:06:31;;;;;;;19.37;9.00;;;;;;;-0.64;100.00;94821.06;5071360;28;20215;-81
2023/01/30 03:09:08;;;;;;;16.97;8.97;;;;;;;-0.75;100.00;94821.25;5066019;28;20257;-83
2023/01/30 03:11:45;;;;;;;20.37;9.83;;;;;;;-0.77;100.00;94814.69;5071292;28;20205;-82
2023/01/30 03:14:18;;;;;;;19.27;9.00;;;;;;;-0.82;100.00;94809.22;5071480;28;20660;-82
2023/01/30 03:16:47;;;;;;;21.17;10.17;;;;;;;-0.75;100.00;94811.03;5070043;28;20201;-82
2023/01/30 03:19:21;;;;;;;20.43;10.50;;;;;;;-0.94;100.00;94802.72;5069467;28;20197;-80
2023/01/30 03:21:48;;;;;;;19.73;10.63;;;;;;;-0.97;100.00;94803.81;5070636;28;20197;-80
2023/01/30 03:24:15;;;;;;;22.17;11.17;;;;;;;-1.28;100.00;94757.47;5074811;28;20228;-80
2023/01/30 03:26:47;;;;;;;20.87;10.50;;;;;;;-1.01;100.00;94789.75;5075141;28;20217;-80
2023/01/30 03:29:14;;;;;;;22.00;11.03;;;;;;;-1.01;100.00;94797.38;5078999;28;20602;-80
2023/01/30 03:31:40;;;;;;;21.77;10.50;;;;;;;-0.84;100.00;94785.63;5085166;28;20200;-79
2023/01/30 03:34:07;;;;;;;24.53;10.97;;;;;;;-0.79;100.00;94789.34;5077313;28;20197;-79
2023/01/30 03:36:36;;;;;;;23.63;11.37;;;;;;;-0.81;100.00;94770.81;5069919;28;20211;-80
2023/01/30 03:39:03;;;;;;;23.77;11.40;;;;;;;-0.67;100.00;94784.81;5073121;28;20197;-79
2023/01/30 03:41:30;;;;;;;23.80;11.43;;;;;;;-0.75;100.00;94777.88;5073366;28;20200;-80
2023/01/30 03:43:56;;;;;;;20.97;10.80;;;;;;;-0.85;100.00;94779.72;5077125;28;20196;-80
2023/01/30 03:46:23;;;;;;;20.83;10.83;;;;;;;-0.99;100.00;94772.56;5082360;28;20200;-80
2023/01/30 03:48:51;;;;;;;21.30;10.63;;;;;;;-1.12;100.00;94774.66;5077377;28;20197;-80
2023/01/30 03:51:17;;;;;;;20.23;10.17;;;;;;;-1.02;100.00;94770.31;5082291;28;20199;-81
2023/01/30 03:53:45;;;;;;;19.13;10.10;;;;;;;-1.15;100.00;94777.50;5069858;28;20263;-82
2023/01/30 03:56:12;;;;;;;19.27;10.00;;;;;;;-1.13;100.00;94768.75;5069898;28;20585;-81
2023/01/30 03:58:39;;;;;;;21.30;10.63;;;;;;;-1.18;100.00;94760.75;5084719;28;20204;-81
2023/01/30 04:01:06;;;;;;;26.67;11.50;;;;;;;-1.10;100.00;94764.34;5088698;28;20193;-81
2023/01/30 04:03:33;;;;;;;24.27;11.50;;;;;;;-1.20;100.00;94769.47;5077012;28;20202;-81
2023/01/30 04:06:00;;;;;;;19.90;11.00;;;;;;;-1.23;100.00;94755.28;5070142;28;20217;-82
2023/01/30 04:08:27;;;;;;;21.00;11.50;;;;;;;-1.20;100.00;94755.00;5072666;28;20234;-80
2023/01/30 04:10:55;;;;;;;25.93;12.53;;;;;;;-1.19;100.00;94761.72;5069448;28;20202;-79
2023/01/30 04:13:22;;;;;;;23.47;9.83;;;;;;;-1.19;100.00;94761.72;5072082;28;20214;-79
2023/01/30 04:15:49;;;;;;;18.63;10.60;;;;;;;-1.23;100.00;94762.94;5073964;28;20220;-81
2023/01/30 04:18:16;;;;;;;22.33;11.47;;;;;;;-1.26;100.00;94763.22;5074408;28;20206;-81
2023/01/30 04:20:43;;;;;;;27.00;12.00;;;;;;;-1.38;100.00;94740.59;5074610;28;20196;-82
2023/01/30 04:23:09;;;;;;;25.07;12.93;;;;;;;-1.17;100.00;94753.91;5084785;28;20193;-82
2023/01/30 04:25:36;;;;;;;24.63;12.87;;;;;;;-1.25;100.00;94749.53;5078122;28;20241;-83
2023/01/30 04:28:05;;;;;;;25.33;12.67;;;;;;;-1.19;100.00;94755.81;5073022;28;20618;-83
2023/01/30 04:30:32;;;;;;;24.47;12.80;;;;;;;-1.15;100.00;94765.56;5073818;28;20228;-81
2023/01/30 04:32:58;;;;;;;25.97;12.60;;;;;;;-1.15;100.00;94765.56;5066359;28;20235;-82
2023/01/30 04:35:25;;;;;;;22.60;11.47;;;;;;;-1.09;100.00;94759.06;5072063;28;20201;-75
2023/01/30 04:37:52;;;;;;;20.83;11.47;;;;;;;-1.06;100.00;94760.53;5081156;28;20200;-75
2023/01/30 04:40:19;;;;;;;22.37;11.73;;;;;;;-0.90;100.00;94764.06;5074540;28;20618;-75
2023/01/30 04:42:46;;;;;;;29.30;12.33;;;;;;;-0.90;100.00;94760.69;5079171;28;20645;-75
2023/01/30 04:45:14;;;;;;;25.70;12.87;;;;;;;-0.90;100.00;94763.25;5083841;28;20217;-75
2023/01/30 04:47:41;;;;;;;24.03;11.53;;;;;;;-0.99;100.00;94754.72;5074893;28;20693;-75
2023/01/30 04:50:09;;;;;;;26.73;12.63;;;;;;;-1.07;100.00;94747.00;5080549;28;20228;-75
2023/01/30 04:52:36;;;;;;;21.33;11.40;;;;;;;-1.13;100.00;94743.25;5081433;28;20205;-75
2023/01/30 04:55:03;;;;;;;24.37;12.20;;;;;;;-1.21;100.00;94747.47;5077623;28;20677;-75
2023/01/30 04:57:30;;;;;;;26.20;12.87;;;;;;;-1.17;100.00;94738.59;5077945;28;21199;-75
2023/01/30 04:59:57;;;;;;;26.43;13.10;;;;;;;-1.11;100.00;94734.69;5083521;28;20212;-75
2023/01/30 05:02:25;;;;;;;26.87;13.43;;;;;;;-1.01;100.00;94737.97;5076880;28;20216;-75
2023/01/30 05:04:52;;;;;;;32.00;14.17;;;;;;;-1.03;100.00;94739.84;5077402;28;20820;-75
2023/01/30 05:07:18;;;;;;;25.77;12.93;;;;;;;-1.00;100.00;94742.09;5078491;28;20664;-75
2023/01/30 05:09:45;;;;;;;30.10;14.10;;;;;;;-1.08;100.00;94737.75;5077571;28;20196;-75
2023/01/30 05:12:12;;;;;;;26.67;13.87;;;;;;;-1.08;100.00;94731.84;5078088;28;20612;-75
2023/01/30 05:14:40;;;;;;;28.03;12.63;;;;;;;-1.08;100.00;94735.19;5081190;28;20665;-75
2023/01/30 05:17:07;;;;;;;26.93;13.73;;;;;;;-1.08;100.00;94734.38;5077696;28;20197;-74
2023/01/30 05:19:36;;;;;;;31.40;14.27;;;;;;;-1.03;100.00;94732.19;5075935;28;20288;-78
2023/01/30 05:22:03;;;;;;;30.50;15.17;;;;;;;-1.01;100.00;94743.84;5081826;28;20304;-75
2023/01/30 05:24:29;;;;;;;35.20;15.70;;;;;;;-1.01;100.00;94740.53;5076563;28;20262;-75
2023/01/30 05:26:56;;;;;;;30.57;14.23;;;;;;;-0.99;100.00;94746.25;5076956;28;20213;-75
2023/01/30 05:29:23;;;;;;;30.13;15.27;;;;;;;-1.02;100.00;94739.72;5082404;28;20233;-75
2023/01/30 05:31:50;;;;;;;30.27;14.47;;;;;;;-1.00;100.00;94750.56;5078010;28;20197;-75
2023/01/30 05:34:17;;;;;;;32.57;15.13;;;;;;;-0.97;100.00;94752.00;5078733;28;20204;-74
2023/01/30 05:36:45;;;;;;;33.57;15.83;;;;;;;-1.02;100.00;94749.91;5082200;28;20189;-75
2023/01/30 05:39:11;;;;;;;36.77;16.83;;;;;;;-1.00;100.00;94747.19;5078162;28;20238;-74
2023/01/30 05:41:38;;;;;;;35.63;16.63;;;;;;;-0.96;100.00;94751.06;5072990;28;20198;-74
2023/01/30 05:44:05;;;;;;;34.97;16.43;;;;;;;-0.98;100.00;94748.66;5081573;28;20194;-75
2023/01/30 05:46:32;;;;;;;33.83;16.47;;;;;;;-1.00;100.00;94747.19;5076097;28;20220;-78
2023/01/30 05:48:59;;;;;;;34.30;15.83;;;;;;;-1.07;100.00;94744.47;5077832;28;20212;-75
2023/01/30 05:51:27;;;;;;;36.20;16.67;;;;;;;-1.06;100.00;94740.13;5081842;28;20603;-75
2023/01/30 05:53:55;;;;;;;35.00;16.80;;;;;;;-1.10;100.00;94739.66;5077631;28;20204;-76
2023/01/30 05:56:22;;;;;;;41.00;17.60;;;;;;;-1.06;100.00;94756.25;5077892;28;20288;-75
2023/01/30 05:58:56;;;;;;;41.20;17.70;;;;;;;-1.11;100.00;94750.78;5080626;28;20607;-75
2023/01/30 06:01:23;;;;;;;39.30;18.13;;;;;;;-1.15;100.00;94752.81;5074881;28;20195;-75
2023/01/30 06:03:50;;;;;;;37.33;16.87;;;;;;;-1.23;100.00;94765.47;5078553;28;20201;-75
2023/01/30 06:06:17;;;;;;;37.63;17.47;;;;;;;-1.31;100.00;94745.00;5079967;28;20217;-75
2023/01/30 06:08:44;;;;;;;42.47;18.47;;;;;;;-1.10;100.00;94766.88;5078626;28;20197;-76
2023/01/30 06:11:14;;;;;;;43.90;20.10;;;;;;;-1.06;100.00;94765.63;5077147;28;20206;-76
2023/01/30 06:13:41;;;;;;;42.43;19.23;;;;;;;-0.96;100.00;94758.72;5078129;28;20255;-75
2023/01/30 06:16:10;;;;;;;39.20;17.70;;;;;;;-1.06;100.00;94763.06;5077535;28;20644;-75
2023/01/30 06:18:38;;;;;;;39.10;18.10;;;;;;;-1.21;100.00;94748.28;5071687;28;20201;-75
2023/01/30 06:21:05;;;;;;;37.33;17.53;;;;;;;-1.16;100.00;94758.06;5081552;28;20189;-75
2023/01/30 06:23:32;;;;;;;37.70;17.17;;;;;;;-1.24;100.00;94746.03;5070289;28;20193;-75
2023/01/30 06:25:59;;;;;;;39.80;17.57;;;;;;;-1.34;100.00;94749.59;5074333;28;20218;-75
2023/01/30 06:28:28;;;;;;;38.20;16.37;;;;;;;-1.37;100.00;94758.31;5080547;28;20200;-75
2023/01/30 06:30:54;;;;;;;37.90;18.70;;;;;;;-1.23;100.00;94755.28;5073916;28;20704;-75
2023/01/30 06:33:21;;;;;;;44.23;18.47;;;;;;;-1.26;100.00;94750.47;5074790;28;20201;-75
2023/01/30 06:35:49;;;;;;;40.27;19.13;;;;;;;-1.24;100.00;94751.13;5079819;28;20247;-76
2023/01/30 06:38:17;;;;;;;40.60;17.43;;;;;;;-1.17;100.00;94749.59;5074279;28;20276;-75
2023/01/30 06:40:45;;;;;;;43.40;19.00;;;;;;;-1.25;100.00;94754.63;5075632;28;20202;-75
2023/01/30 06:43:12;;;;;;;39.33;17.57;;;;;;;-1.31;100.00;94734.00;5082017;28;20610;-75
2023/01/30 06:45:40;;;;;;;46.23;18.77;;;;;;;-1.11;100.00;94755.06;5072918;28;20224;-75
2023/01/30 06:48:07;;;;;;;41.63;18.73;;;;;;;-1.19;100.00;94759.16;5073221;28;20201;-75
2023/01/30 06:50:34;;;;;;;44.67;19.90;;;;;;;-1.21;100.00;94755.94;5080458;28;20209;-75
2023/01/30 06:53:03;;;;;;;44.83;19.70;;;;;;;-1.30;100.00;94756.00;5071392;28;20205;-75
2023/01/30 06:55:33;;;;;;;46.43;20.73;;;;;;;-1.40;100.00;94761.16;5075379;28;20208;-75
2023/01/30 06:58:05;;;;;;;39.70;18.90;;;;;;;-1.35;100.00;94763.25;5074307;28;20567;-75
2023/01/30 07:00:32;;;;;;;42.80;19.07;;;;;;;-1.30;100.00;94761.09;5076861;28;20289;-75
2023/01/30 07:03:01;;;;;;;38.63;18.17;;;;;;;-1.38;100.00;94756.72;5069868;28;20205;-75
2023/01/30 07:05:28;;;;;;;43.67;18.23;;;;;;;-1.25;100.00;94764.03;5079299;28;20208;-75
2023/01/30 07:07:55;;;;;;;35.97;17.30;;;;;;;-1.32;100.00;94763.78;5074709;28;20204;-75
2023/01/30 07:10:24;;;;;;;39.30;17.40;;;;;;;-1.33;100.00;94766.50;5075817;28;20192;-75
2023/01/30 07:12:52;;;;;;;41.70;17.87;;;;;;;-1.37;100.00;94767.72;5077483;28;20204;-75
2023/01/30 07:15:18;;;;;;;36.80;16.50;;;;;;;-1.46;100.00;94766.00;5077382;28;20273;-75
2023/01/30 07:17:45;;;;;;;40.00;17.20;;;;;;;-1.42;100.00;94768.16;5072927;28;20197;-75
2023/01/30 07:20:14;;;;;;;41.53;18.40;;;;;;;-1.27;100.00;94773.56;5078242;28;20205;-75
2023/01/30 07:22:40;;;;;;;46.57;20.37;;;;;;;-1.18;100.00;94770.13;5076723;28;20194;-75
2023/01/30 07:25:08;;;;;;;48.53;20.90;;;;;;;-1.19;100.00;94771.91;5074257;28;20200;-75
2023/01/30 07:27:35;;;;;;;51.73;22.53;;;;;;;-1.08;100.00;94772.63;5077854;28;20193;-75
2023/01/30 07:30:02;;;;;;;46.63;20.20;;;;;;;-1.11;100.00;94773.72;5069673;28;20228;-75
2023/01/30 07:32:28;;;;;;;39.93;19.73;;;;;;;-1.03;100.00;94776.34;5069957;28;20200;-75
2023/01/30 07:34:55;;;;;;;53.50;21.97;;;;;;;-0.92;100.00;94788.06;5066958;28;20268;-75
2023/01/30 07:37:24;;;;;;;48.53;23.03;;;;;;;-0.91;100.00;94790.50;5076448;28;20193;-75
2023/01/30 07:39:51;;;;;;;52.77;22.67;;;;;;;-0.90;100.00;94789.56;5073938;28;20227;-75
2023/01/30 07:42:18;;;;;;;50.37;20.17;;;;;;;-0.78;100.00;94792.69;5075543;28;20243;-75
2023/01/30 07:44:45;;;;;;;46.53;21.90;;;;;;;-0.76;100.00;94789.03;5078708;28;20198;-75
2023/01/30 07:47:11;;;;;;;41.00;19.60;;;;;;;-0.74;100.00;94788.88;5075735;28;21489;-75
2023/01/30 07:49:38;;;;;;;39.23;18.43;;;;;;;-0.93;100.00;94781.38;5081505;28;20574;-75
2023/01/30 07:52:05;;;;;;;39.63;17.60;;;;;;;-0.99;100.00;94776.88;5080737;28;20196;-75
2023/01/30 07:54:33;;;;;;;41.20;19.03;;;;;;;-0.95;100.00;94784.06;5080271;28;20201;-75
2023/01/30 07:57:00;;;;;;;42.87;20.63;;;;;;;-0.85;100.00;94777.16;5077502;28;20196;-75
2023/01/30 07:59:27;;;;;;;45.73;22.30;;;;;;;-0.81;100.00;94775.91;5081199;28;20203;-74
2023/01/30 08:01:55;;;;;;;46.60;22.50;;;;;;;-1.00;100.00;94753.09;5077580;28;20224;-75
2023/01/30 08:04:22;;;;;;;41.83;20.33;;;;;;;-1.05;100.00;94757.03;5074557;28;20288;-75
2023/01/30 08:06:49;;;;;;;48.97;22.10;;;;;;;-1.03;100.00;94750.03;5083414;28;20747;-75
2023/01/30 08:09:16;;;;;;;43.77;20.07;;;;;;;-0.90;100.00;94753.03;5074900;28;20585;-76
2023/01/30 08:11:45;;;;;;;42.60;19.67;;;;;;;-0.75;100.00;94756.69;5081764;28;20244;-79
2023/01/30 08:14:12;;;;;;;48.20;20.03;;;;;;;-0.66;100.00;94751.50;5082208;28;20208;-76
2023/01/30 08:16:39;;;;;;;45.97;21.67;;;;;;;-0.58;100.00;94760.97;5074401;28;20188;-76
2023/01/30 08:19:06;;;;;;;43.13;21.00;;;;;;;-0.77;100.00;94745.81;5075851;28;20996;-76
2023/01/30 08:21:33;;;;;;;52.67;21.90;;;;;;;-0.82;100.00;94756.47;5072099;28;20201;-77
2023/01/30 08:24:00;;;;;;;44.43;21.27;;;;;;;-0.98;100.00;94753.75;5074111;28;20197;-80
2023/01/30 08:26:26;;;;;;;42.97;20.53;;;;;;;-0.91;100.00;94744.59;5074552;28;20691;-80
2023/01/30 08:28:55;;;;;;;42.50;19.33;;;;;;;-1.03;100.00;94745.75;5083500;28;20636;-79
2023/01/30 08:31:22;;;;;;;39.43;19.30;;;;;;;-0.84;100.00;94743.06;5068953;28;20186;-78
2023/01/30 08:33:49;;;;;;;43.87;20.10;;;;;;;-0.78;100.00;94737.34;5077716;28;20197;-78
2023/01/30 08:36:16;;;;;;;44.50;21.07;;;;;;;-0.64;100.00;94736.06;5069993;28;20779;-80
2023/01/30 08:38:42;;;;;;;40.17;19.77;;;;;;;-0.55;100.00;94727.50;5073439;28;20197;-78
2023/01/30 08:41:09;;;;;;;41.03;19.87;;;;;;;-0.43;100.00;94739.06;5076446;28;20205;-78
2023/01/30 08:43:36;;;;;;;43.90;20.67;;;;;;;-0.45;100.00;94735.06;5080023;28;20215;-77
2023/01/30 08:46:05;;;;;;;43.80;19.37;;;;;;;-0.56;100.00;94725.91;5077716;28;20282;-79
2023/01/30 08:48:32;;;;;;;41.40;19.53;;;;;;;-0.72;100.00;94731.66;5077282;28;20197;-75
2023/01/30 08:50:59;;;;;;;47.57;22.63;;;;;;;-0.71;100.00;94733.28;5082358;28;20225;-75
2023/01/30 08:53:25;;;;;;;42.67;20.37;;;;;;;-0.66;100.00;94725.16;5074906;28;20197;-75
2023/01/30 08:55:53;;;;;;;39.87;18.77;;;;;;;-0.61;100.00;94716.13;5078455;28;20263;-76
2023/01/30 08:58:20;;;;;;;34.60;16.90;;;;;;;-0.43;100.00;94715.31;5072513;28;20720;-78
2023/01/30 09:00:48;;;;;;;42.13;20.23;;;;;;;-0.53;100.00;94723.06;5077241;28;20198;-78
2023/01/30 09:03:17;;;;;;;33.00;16.03;;;;;;;-0.60;100.00;94716.94;5074231;28;20196;-77
2023/01/30 09:05:44;;;;;;;32.17;14.33;;;;;;;-0.65;100.00;94716.59;5082074;28;20575;-76
2023/01/30 09:08:11;;;;;;;33.00;15.40;;;;;;;-0.70;100.00;94711.13;5075476;28;20250;-74
2023/01/30 09:10:38;;;;;;;29.17;14.60;;;;;;;-0.58;100.00;94707.41;5081000;28;20608;-75
2023/01/30 09:13:05;;;;;;;34.27;17.17;;;;;;;-0.57;100.00;94712.34;5082638;28;20212;-76
2023/01/30 09:15:32;;;;;;;28.37;15.13;;;;;;;-0.69;100.00;94710.97;5083157;28;20543;-77
2023/01/30 09:17:59;;;;;;;29.13;14.10;;;;;;;-0.67;100.00;94715.94;5080871;28;20612;-76
2023/01/30 09:20:27;;;;;;;30.30;15.77;;;;;;;-0.68;100.00;94707.47;5079474;28;20652;-77
2023/01/30 09:22:54;;;;;;;22.17;11.10;;;;;;;-0.82;100.00;94713.09;5081260;28;20197;-76
2023/01/30 09:25:21;;;;;;;28.63;13.67;;;;;;;-0.78;100.00;94700.88;5075527;28;20213;-76
2023/01/30 09:27:51;;;;;;;28.73;14.47;;;;;;;-0.81;100.00;94690.97;5082507;28;20220;-76
2023/01/30 09:30:18;;;;;;;28.27;14.23;;;;;;;-0.70;100.00;94713.69;5080942;28;20225;-77
2023/01/30 09:32:45;;;;;;;38.80;19.53;;;;;;;-0.66;100.00;94704.75;5080273;28;20198;-76
2023/01/30 09:35:12;;;;;;;32.03;17.17;;;;;;;-0.57;100.00;94714.09;5080603;28;20197;-76
2023/01/30 09:37:47;;;;;;;32.03;16.77;;;;;;;-0.45;100.00;94706.97;5083379;28;20189;-77
2023/01/30 09:40:15;;;;;;;30.07;14.10;;;;;;;-0.42;100.00;94693.94;5081775;28;20276;-77
2023/01/30 09:43:14;;;;;;;26.03;13.07;;;;;;;-0.43;100.00;94695.66;5078133;28;20199;-77
2023/01/30 09:45:46;;;;;;;24.73;13.23;;;;;;;-0.39;100.00;94685.97;5078317;28;20182;-77
2023/01/30 09:48:19;;;;;;;30.67;15.30;;;;;;;-0.48;100.00;94671.56;5084216;28;20192;-77
2023/01/30 09:51:03;;;;;;;37.17;16.90;;;;;;;-0.33;100.00;94690.47;5074491;28;20189;-77
2023/01/30 09:53:38;;;;;;;29.50;14.50;;;;;;;-0.35;100.00;94679.63;5074857;28;20189;-77
2023/01/30 09:56:06;;;;;;;30.50;14.23;;;;;;;-0.43;100.00;94671.94;5078434;28;20185;-76
2023/01/30 09:58:44;;;;;;;23.50;12.47;;;;;;;-0.36;100.00;94681.38;5080505;28;20189;-77
2023/01/30 10:01:18;;;;;;;23.30;12.47;;;;;;;-0.41;100.00;94670.00;5079701;28;20204;-77
2023/01/30 10:04:03;;;;;;;26.77;13.63;;;;;;;-0.34;100.00;94668.44;5076211;28;20251;-77
2023/01/30 10:06:36;;;;;;;31.50;14.90;;;;;;;-0.22;100.00;94669.78;5075148;28;20277;-77
2023/01/30 10:09:10;;;;;;;31.77;16.80;;;;;;;-0.17;100.00;94658.16;5077805;28;20242;-77
2023/01/30 10:11:51;;;;;;;33.03;15.50;;;;;;;-0.17;100.00;94649.69;5077195;28;20184;-78
2023/01/30 10:14:42;;;;;;;30.43;15.83;;;;;;;-0.20;100.00;94655.91;5077390;28;20694;-78
2023/01/30 10:17:29;;;;;;;35.43;15.63;;;;;;;-0.28;100.00;94643.13;5075710;28;20203;-78
2023/01/30 10:20:25;;;;;;;31.33;16.37;;;;;;;-0.48;100.00;94639.19;5082951;28;20193;-77
2023/01/30 10:23:04;;;;;;;34.20;18.37;;;;;;;-0.44;100.00;94639.69;5078120;28;20645;-77
2023/01/30 10:25:38;;;;;;;36.73;18.53;;;;;;;-0.41;100.00;94624.06;5077813;28;20190;-78
2023/01/30 10:28:12;;;;;;;30.33;15.80;;;;;;;-0.55;100.00;94627.19;5072761;28;20201;-77
2023/01/30 10:30:39;;;;;;;37.33;17.13;;;;;;;-0.51;100.00;94620.81;5075006;28;20217;-77
2023/01/30 10:33:13;;;;;;;32.27;16.37;;;;;;;-0.51;100.00;94628.47;5081989;28;20189;-77
2023/01/30 10:35:42;;;;;;;37.27;17.47;;;;;;;-0.61;100.00;94605.63;5080652;28;20196;-78
2023/01/30 10:38:19;;;;;;;31.80;14.97;;;;;;;-0.57;100.00;94607.72;5081446;28;20548;-78
2023/01/30 10:40:58;;;;;;;31.83;14.83;;;;;;;-0.54;100.00;94604.06;5079701;28;20182;-77
2023/01/30 10:43:29;;;;;;;27.90;12.73;;;;;;;-0.69;100.00;94597.91;5078114;28;20178;-77
2023/01/30 10:46:04;;;;;;;26.97;13.60;;;;;;;-0.61;100.00;94592.88;5080022;28;20246;-77
2023/01/30 10:48:51;;;;;;;33.10;16.30;;;;;;;-0.48;100.00;94589.91;5081665;28;20185;-78
2023/01/30 10:51:30;;;;;;;34.97;16.30;;;;;;;-0.39;100.00;94591.53;5076731;28;20193;-77
2023/01/30 10:54:00;;;;;;;36.97;16.20;;;;;;;-0.34;100.00;94571.44;5082436;28;20532;-78
2023/01/30 10:56:35;;;;;;;33.07;15.73;;;;;;;-0.27;100.00;94569.91;5079668;28;20181;-79
2023/01/30 10:59:13;;;;;;;29.97;15.20;;;;;;;-0.26;100.00;94567.19;5077772;28;20181;-78
2023/01/30 11:01:44;;;;;;;34.03;16.23;;;;;;;-0.17;100.00;94557.78;5076764;28;20198;-78
2023/01/30 11:04:20;;;;;;;43.73;19.10;;;;;;;-0.20;100.00;94553.78;5081270;28;20590;-78
2023/01/30 11:06:48;;;;;;;36.23;17.97;;;;;;;-0.19;100.00;94544.38;5078703;28;20545;-78
2023/01/30 11:09:15;;;;;;;31.70;15.27;;;;;;;-0.36;100.00;94538.44;5081935;28;20201;-78
2023/01/30 11:11:49;;;;;;;34.53;15.83;;;;;;;-0.35;100.00;94536.69;5074726;28;20198;-77
2023/01/30 11:14:16;;;;;;;31.90;15.17;;;;;;;-0.40;100.00;94532.03;5079069;28;20686;-78
2023/01/30 11:16:46;;;;;;;37.17;18.40;;;;;;;-0.41;100.00;94525.34;5080065;28;20189;-78
2023/01/30 11:19:15;;;;;;;44.63;22.73;;;;;;;-0.42;100.00;94517.84;5079699;28;20204;-76
2023/01/30 11:21:43;;;;;;;43.03;20.50;;;;;;;-0.55;100.00;94515.75;5073105;28;20200;-77
2023/01/30 11:24:16;;;;;;;39.80;20.70;;;;;;;-0.60;100.00;94511.06;5081584;28;20192;-77
2023/01/30 11:26:45;;;;;;;41.03;19.77;;;;;;;-0.52;100.00;94506.97;5076805;28;20214;-77
2023/01/30 11:29:26;;;;;;;36.93;17.43;;;;;;;-0.46;100.00;94499.47;5079630;28;20227;-77